sensor_id;sensor_type;location;lat;lon;timestamp;P1;durP1;ratioP1;P2;durP2;ratioP2
12780;SDS011;6454;43.304;24.344;2023-04-25T00:00:08;2.00;;;1.80;;
12780;SDS011;6454;43.304;24.344;2023-04-25T00:02:35;2.47;;;2.10;;
12780;SDS011;6454;43.304;24.344;2023-04-25T00:05:02;2.30;;;2.10;;
12780;SDS011;6454;43.304;24.344;2023-04-25T00:07:31;2.38;;;2.17;;
12780;SDS011;6454;43.304;24.344;2023-04-25T00:09:58;2.75;;;2.17;;
12780;SDS011;6454;43.304;24.344;2023-04-25T00:12:25;2.53;;;2.00;;
12780;SDS011;6454;43.304;24.344;2023-04-25T00:14:53;1.92;;;1.80;;
12780;SDS011;6454;43.304;24.344;2023-04-25T00:17:22;3.63;;;1.83;;
12780;SDS011;6454;43.304;24.344;2023-04-25T00:19:49;2.10;;;2.00;;
12780;SDS011;6454;43.304;24.344;2023-04-25T00:22:16;2.08;;;1.88;;
12780;SDS011;6454;43.304;24.344;2023-04-25T00:24:44;2.58;;;1.98;;
12780;SDS011;6454;43.304;24.344;2023-04-25T00:27:11;4.43;;;1.80;;
12780;SDS011;6454;43.304;24.344;2023-04-25T00:29:38;3.60;;;2.03;;
12780;SDS011;6454;43.304;24.344;2023-04-25T00:32:05;3.08;;;1.92;;
12780;SDS011;6454;43.304;24.344;2023-04-25T00:34:31;2.38;;;1.90;;
12780;SDS011;6454;43.304;24.344;2023-04-25T00:36:58;2.05;;;1.80;;
12780;SDS011;6454;43.304;24.344;2023-04-25T00:39:27;1.80;;;1.70;;
12780;SDS011;6454;43.304;24.344;2023-04-25T00:41:55;2.90;;;1.80;;
12780;SDS011;6454;43.304;24.344;2023-04-25T00:44:22;1.70;;;1.60;;
12780;SDS011;6454;43.304;24.344;2023-04-25T00:46:49;1.92;;;1.80;;
12780;SDS011;6454;43.304;24.344;2023-04-25T00:49:16;5.88;;;1.73;;
12780;SDS011;6454;43.304;24.344;2023-04-25T00:51:43;2.42;;;1.70;;
12780;SDS011;6454;43.304;24.344;2023-04-25T00:54:10;3.67;;;2.05;;
12780;SDS011;6454;43.304;24.344;2023-04-25T00:56:38;3.00;;;1.63;;
12780;SDS011;6454;43.304;24.344;2023-04-25T00:59:07;1.70;;;1.60;;
12780;SDS011;6454;43.304;24.344;2023-04-25T01:01:36;2.35;;;1.60;;
12780;SDS011;6454;43.304;24.344;2023-04-25T01:04:04;2.05;;;1.50;;
12780;SDS011;6454;43.304;24.344;2023-04-25T01:06:31;3.22;;;1.60;;
12780;SDS011;6454;43.304;24.344;2023-04-25T01:08:58;2.05;;;1.40;;
12780;SDS011;6454;43.304;24.344;2023-04-25T01:11:26;1.90;;;1.50;;
12780;SDS011;6454;43.304;24.344;2023-04-25T01:13:52;1.35;;;1.25;;
12780;SDS011;6454;43.304;24.344;2023-04-25T01:16:21;1.70;;;1.60;;
12780;SDS011;6454;43.304;24.344;2023-04-25T01:18:48;3.30;;;1.50;;
12780;SDS011;6454;43.304;24.344;2023-04-25T01:21:17;1.65;;;1.55;;
12780;SDS011;6454;43.304;24.344;2023-04-25T01:23:44;2.75;;;1.52;;
12780;SDS011;6454;43.304;24.344;2023-04-25T01:26:11;1.90;;;1.60;;
12780;SDS011;6454;43.304;24.344;2023-04-25T01:28:38;1.65;;;1.40;;
12780;SDS011;6454;43.304;24.344;2023-04-25T01:31:06;1.88;;;1.52;;
12780;SDS011;6454;43.304;24.344;2023-04-25T01:33:33;2.03;;;1.65;;
12780;SDS011;6454;43.304;24.344;2023-04-25T01:36:00;1.40;;;1.30;;
12780;SDS011;6454;43.304;24.344;2023-04-25T01:38:28;1.48;;;1.38;;
12780;SDS011;6454;43.304;24.344;2023-04-25T01:40:56;1.38;;;1.27;;
12780;SDS011;6454;43.304;24.344;2023-04-25T01:43:23;1.48;;;1.38;;
12780;SDS011;6454;43.304;24.344;2023-04-25T01:45:51;1.60;;;1.50;;
12780;SDS011;6454;43.304;24.344;2023-04-25T01:48:18;2.10;;;1.50;;
12780;SDS011;6454;43.304;24.344;2023-04-25T01:50:45;1.55;;;1.33;;
12780;SDS011;6454;43.304;24.344;2023-04-25T01:53:12;2.15;;;1.45;;
12780;SDS011;6454;43.304;24.344;2023-04-25T01:55:41;1.58;;;1.48;;
12780;SDS011;6454;43.304;24.344;2023-04-25T01:58:08;2.60;;;1.75;;
12780;SDS011;6454;43.304;24.344;2023-04-25T02:00:37;1.83;;;1.63;;
12780;SDS011;6454;43.304;24.344;2023-04-25T02:03:04;1.42;;;1.33;;
12780;SDS011;6454;43.304;24.344;2023-04-25T02:05:33;1.40;;;1.30;;
12780;SDS011;6454;43.304;24.344;2023-04-25T02:08:01;2.40;;;1.52;;
12780;SDS011;6454;43.304;24.344;2023-04-25T02:10:28;2.35;;;1.40;;
12780;SDS011;6454;43.304;24.344;2023-04-25T02:12:57;2.75;;;1.50;;
12780;SDS011;6454;43.304;24.344;2023-04-25T02:15:24;1.92;;;1.50;;
12780;SDS011;6454;43.304;24.344;2023-04-25T02:17:51;2.20;;;1.20;;
12780;SDS011;6454;43.304;24.344;2023-04-25T02:20:18;2.55;;;1.30;;
12780;SDS011;6454;43.304;24.344;2023-04-25T02:22:46;1.48;;;1.38;;
12780;SDS011;6454;43.304;24.344;2023-04-25T02:25:13;7.90;;;2.00;;
12780;SDS011;6454;43.304;24.344;2023-04-25T02:27:41;1.55;;;1.45;;
12780;SDS011;6454;43.304;24.344;2023-04-25T02:30:09;3.55;;;1.55;;
12780;SDS011;6454;43.304;24.344;2023-04-25T02:32:36;3.65;;;1.65;;
12780;SDS011;6454;43.304;24.344;2023-04-25T02:35:03;1.77;;;1.58;;
12780;SDS011;6454;43.304;24.344;2023-04-25T02:37:31;4.43;;;1.50;;
12780;SDS011;6454;43.304;24.344;2023-04-25T02:39:58;1.50;;;1.40;;
12780;SDS011;6454;43.304;24.344;2023-04-25T02:42:25;2.35;;;1.50;;
12780;SDS011;6454;43.304;24.344;2023-04-25T02:44:52;2.08;;;1.63;;
12780;SDS011;6454;43.304;24.344;2023-04-25T02:47:20;4.50;;;1.85;;
12780;SDS011;6454;43.304;24.344;2023-04-25T02:49:47;4.07;;;1.50;;
12780;SDS011;6454;43.304;24.344;2023-04-25T02:52:14;1.70;;;1.30;;
12780;SDS011;6454;43.304;24.344;2023-04-25T02:54:41;4.18;;;1.40;;
12780;SDS011;6454;43.304;24.344;2023-04-25T02:57:08;2.45;;;1.65;;
12780;SDS011;6454;43.304;24.344;2023-04-25T02:59:35;1.70;;;1.60;;
12780;SDS011;6454;43.304;24.344;2023-04-25T03:02:01;3.05;;;1.50;;
12780;SDS011;6454;43.304;24.344;2023-04-25T03:04:30;2.85;;;1.60;;
12780;SDS011;6454;43.304;24.344;2023-04-25T03:06:58;1.42;;;1.33;;
12780;SDS011;6454;43.304;24.344;2023-04-25T03:09:26;2.88;;;1.80;;
12780;SDS011;6454;43.304;24.344;2023-04-25T03:11:52;1.83;;;1.50;;
12780;SDS011;6454;43.304;24.344;2023-04-25T03:14:19;1.77;;;1.50;;
12780;SDS011;6454;43.304;24.344;2023-04-25T03:16:46;1.67;;;1.50;;
12780;SDS011;6454;43.304;24.344;2023-04-25T03:19:13;1.70;;;1.60;;
12780;SDS011;6454;43.304;24.344;2023-04-25T03:21:42;3.10;;;1.58;;
12780;SDS011;6454;43.304;24.344;2023-04-25T03:24:09;4.13;;;1.40;;
12780;SDS011;6454;43.304;24.344;2023-04-25T03:26:37;2.63;;;1.88;;
12780;SDS011;6454;43.304;24.344;2023-04-25T03:29:03;3.53;;;1.75;;
12780;SDS011;6454;43.304;24.344;2023-04-25T03:31:30;1.98;;;1.75;;
12780;SDS011;6454;43.304;24.344;2023-04-25T03:33:57;1.95;;;1.80;;
12780;SDS011;6454;43.304;24.344;2023-04-25T03:36:24;2.97;;;1.65;;
12780;SDS011;6454;43.304;24.344;2023-04-25T03:38:52;2.30;;;2.00;;
12780;SDS011;6454;43.304;24.344;2023-04-25T03:41:19;2.28;;;1.63;;
12780;SDS011;6454;43.304;24.344;2023-04-25T03:43:46;1.67;;;1.45;;
12780;SDS011;6454;43.304;24.344;2023-04-25T03:46:13;2.08;;;1.75;;
12780;SDS011;6454;43.304;24.344;2023-04-25T03:48:39;3.60;;;1.60;;
12780;SDS011;6454;43.304;24.344;2023-04-25T03:51:06;1.73;;;1.63;;
12780;SDS011;6454;43.304;24.344;2023-04-25T03:53:33;2.25;;;1.70;;
12780;SDS011;6454;43.304;24.344;2023-04-25T03:56:01;2.20;;;2.00;;
12780;SDS011;6454;43.304;24.344;2023-04-25T03:58:28;3.35;;;1.80;;
12780;SDS011;6454;43.304;24.344;2023-04-25T04:00:54;2.38;;;1.88;;
12780;SDS011;6454;43.304;24.344;2023-04-25T04:03:21;2.28;;;1.63;;
12780;SDS011;6454;43.304;24.344;2023-04-25T04:05:48;2.17;;;1.60;;
12780;SDS011;6454;43.304;24.344;2023-04-25T04:08:15;2.97;;;1.90;;
12780;SDS011;6454;43.304;24.344;2023-04-25T04:10:42;2.08;;;1.88;;
12780;SDS011;6454;43.304;24.344;2023-04-25T04:13:10;5.53;;;1.80;;
12780;SDS011;6454;43.304;24.344;2023-04-25T04:15:37;4.55;;;2.15;;
12780;SDS011;6454;43.304;24.344;2023-04-25T04:18:04;2.05;;;1.80;;
12780;SDS011;6454;43.304;24.344;2023-04-25T04:20:31;2.03;;;1.83;;
12780;SDS011;6454;43.304;24.344;2023-04-25T04:22:58;2.50;;;1.80;;
12780;SDS011;6454;43.304;24.344;2023-04-25T04:25:24;3.53;;;1.77;;
12780;SDS011;6454;43.304;24.344;2023-04-25T04:27:51;2.35;;;1.58;;
12780;SDS011;6454;43.304;24.344;2023-04-25T04:30:21;2.53;;;1.77;;
12780;SDS011;6454;43.304;24.344;2023-04-25T04:32:49;2.33;;;1.70;;
12780;SDS011;6454;43.304;24.344;2023-04-25T04:35:16;2.30;;;1.90;;
12780;SDS011;6454;43.304;24.344;2023-04-25T04:37:43;3.28;;;2.10;;
12780;SDS011;6454;43.304;24.344;2023-04-25T04:40:10;2.00;;;1.70;;
12780;SDS011;6454;43.304;24.344;2023-04-25T04:42:40;1.98;;;1.83;;
12780;SDS011;6454;43.304;24.344;2023-04-25T04:45:07;2.30;;;1.95;;
12780;SDS011;6454;43.304;24.344;2023-04-25T04:47:36;2.00;;;1.80;;
12780;SDS011;6454;43.304;24.344;2023-04-25T04:50:04;1.80;;;1.70;;
12780;SDS011;6454;43.304;24.344;2023-04-25T04:52:32;2.05;;;1.80;;
12780;SDS011;6454;43.304;24.344;2023-04-25T04:54:59;2.63;;;1.75;;
12780;SDS011;6454;43.304;24.344;2023-04-25T04:57:25;2.30;;;2.10;;
12780;SDS011;6454;43.304;24.344;2023-04-25T04:59:53;2.63;;;1.80;;
12780;SDS011;6454;43.304;24.344;2023-04-25T05:02:20;3.35;;;1.90;;
12780;SDS011;6454;43.304;24.344;2023-04-25T05:04:48;1.77;;;1.67;;
12780;SDS011;6454;43.304;24.344;2023-04-25T05:07:16;2.33;;;1.85;;
12780;SDS011;6454;43.304;24.344;2023-04-25T05:09:43;1.60;;;1.50;;
12780;SDS011;6454;43.304;24.344;2023-04-25T05:12:10;2.17;;;1.98;;
12780;SDS011;6454;43.304;24.344;2023-04-25T05:14:37;5.38;;;2.10;;
12780;SDS011;6454;43.304;24.344;2023-04-25T05:17:04;3.30;;;1.58;;
12780;SDS011;6454;43.304;24.344;2023-04-25T05:19:33;2.03;;;1.90;;
12780;SDS011;6454;43.304;24.344;2023-04-25T05:22:02;2.00;;;1.90;;
12780;SDS011;6454;43.304;24.344;2023-04-25T05:24:29;1.98;;;1.73;;
12780;SDS011;6454;43.304;24.344;2023-04-25T05:26:56;2.13;;;1.95;;
12780;SDS011;6454;43.304;24.344;2023-04-25T05:29:23;2.22;;;1.88;;
12780;SDS011;6454;43.304;24.344;2023-04-25T05:31:50;2.05;;;1.80;;
12780;SDS011;6454;43.304;24.344;2023-04-25T05:34:18;2.15;;;1.80;;
12780;SDS011;6454;43.304;24.344;2023-04-25T05:36:44;1.90;;;1.80;;
12780;SDS011;6454;43.304;24.344;2023-04-25T05:39:14;2.30;;;2.10;;
12780;SDS011;6454;43.304;24.344;2023-04-25T05:41:41;2.20;;;2.00;;
12780;SDS011;6454;43.304;24.344;2023-04-25T05:44:08;2.03;;;1.92;;
12780;SDS011;6454;43.304;24.344;2023-04-25T05:46:35;2.20;;;2.00;;
12780;SDS011;6454;43.304;24.344;2023-04-25T05:49:02;2.42;;;2.17;;
12780;SDS011;6454;43.304;24.344;2023-04-25T05:51:29;2.58;;;2.17;;
12780;SDS011;6454;43.304;24.344;2023-04-25T05:53:56;2.45;;;2.10;;
12780;SDS011;6454;43.304;24.344;2023-04-25T05:56:24;2.38;;;2.17;;
12780;SDS011;6454;43.304;24.344;2023-04-25T05:58:52;2.55;;;2.30;;
12780;SDS011;6454;43.304;24.344;2023-04-25T06:01:19;2.53;;;2.00;;
12780;SDS011;6454;43.304;24.344;2023-04-25T06:03:45;2.30;;;2.05;;
12780;SDS011;6454;43.304;24.344;2023-04-25T06:06:12;2.33;;;2.13;;
12780;SDS011;6454;43.304;24.344;2023-04-25T06:08:39;2.17;;;2.00;;
12780;SDS011;6454;43.304;24.344;2023-04-25T06:11:06;2.47;;;2.22;;
12780;SDS011;6454;43.304;24.344;2023-04-25T06:13:35;2.95;;;2.60;;
12780;SDS011;6454;43.304;24.344;2023-04-25T06:16:01;2.38;;;2.28;;
12780;SDS011;6454;43.304;24.344;2023-04-25T06:18:28;2.95;;;2.75;;
12780;SDS011;6454;43.304;24.344;2023-04-25T06:20:58;2.78;;;2.58;;
12780;SDS011;6454;43.304;24.344;2023-04-25T06:23:25;2.78;;;2.58;;
12780;SDS011;6454;43.304;24.344;2023-04-25T06:25:52;3.50;;;2.95;;
12780;SDS011;6454;43.304;24.344;2023-04-25T06:28:19;2.78;;;2.58;;
12780;SDS011;6454;43.304;24.344;2023-04-25T06:30:48;2.75;;;2.55;;
12780;SDS011;6454;43.304;24.344;2023-04-25T06:33:15;2.65;;;2.45;;
12780;SDS011;6454;43.304;24.344;2023-04-25T06:35:42;3.60;;;2.55;;
12780;SDS011;6454;43.304;24.344;2023-04-25T06:38:09;3.80;;;2.78;;
12780;SDS011;6454;43.304;24.344;2023-04-25T06:40:36;2.65;;;2.45;;
12780;SDS011;6454;43.304;24.344;2023-04-25T06:43:02;4.63;;;2.60;;
12780;SDS011;6454;43.304;24.344;2023-04-25T06:45:29;2.80;;;2.60;;
12780;SDS011;6454;43.304;24.344;2023-04-25T06:47:58;2.83;;;2.50;;
12780;SDS011;6454;43.304;24.344;2023-04-25T06:50:24;2.58;;;2.38;;
12780;SDS011;6454;43.304;24.344;2023-04-25T06:52:51;2.40;;;2.20;;
12780;SDS011;6454;43.304;24.344;2023-04-25T06:55:18;3.08;;;2.78;;
12780;SDS011;6454;43.304;24.344;2023-04-25T06:57:45;3.25;;;2.60;;
12780;SDS011;6454;43.304;24.344;2023-04-25T07:00:12;3.30;;;3.00;;
12780;SDS011;6454;43.304;24.344;2023-04-25T07:02:40;3.13;;;2.85;;
12780;SDS011;6454;43.304;24.344;2023-04-25T07:05:10;5.55;;;3.03;;
12780;SDS011;6454;43.304;24.344;2023-04-25T07:07:36;4.05;;;3.00;;
12780;SDS011;6454;43.304;24.344;2023-04-25T07:10:03;3.05;;;2.85;;
12780;SDS011;6454;43.304;24.344;2023-04-25T07:12:31;2.85;;;2.65;;
12780;SDS011;6454;43.304;24.344;2023-04-25T07:14:58;2.90;;;2.70;;
12780;SDS011;6454;43.304;24.344;2023-04-25T07:17:31;3.30;;;3.00;;
12780;SDS011;6454;43.304;24.344;2023-04-25T07:19:58;3.42;;;2.85;;
12780;SDS011;6454;43.304;24.344;2023-04-25T07:22:26;2.97;;;2.78;;
12780;SDS011;6454;43.304;24.344;2023-04-25T07:24:53;2.90;;;2.70;;
12780;SDS011;6454;43.304;24.344;2023-04-25T07:27:20;3.30;;;2.97;;
12780;SDS011;6454;43.304;24.344;2023-04-25T07:29:47;3.83;;;2.72;;
12780;SDS011;6454;43.304;24.344;2023-04-25T07:32:14;3.15;;;2.85;;
12780;SDS011;6454;43.304;24.344;2023-04-25T07:34:41;3.05;;;2.85;;
12780;SDS011;6454;43.304;24.344;2023-04-25T07:37:08;2.90;;;2.70;;
12780;SDS011;6454;43.304;24.344;2023-04-25T07:39:36;3.00;;;2.70;;
12780;SDS011;6454;43.304;24.344;2023-04-25T07:42:03;2.92;;;2.72;;
12780;SDS011;6454;43.304;24.344;2023-04-25T07:44:33;3.15;;;2.85;;
12780;SDS011;6454;43.304;24.344;2023-04-25T07:47:03;3.50;;;2.88;;
12780;SDS011;6454;43.304;24.344;2023-04-25T07:49:32;3.20;;;2.90;;
12780;SDS011;6454;43.304;24.344;2023-04-25T07:51:59;2.97;;;2.78;;
12780;SDS011;6454;43.304;24.344;2023-04-25T07:54:26;3.15;;;2.53;;
12780;SDS011;6454;43.304;24.344;2023-04-25T07:56:54;4.15;;;2.55;;
12780;SDS011;6454;43.304;24.344;2023-04-25T07:59:21;4.78;;;3.17;;
12780;SDS011;6454;43.304;24.344;2023-04-25T08:01:48;2.65;;;2.45;;
12780;SDS011;6454;43.304;24.344;2023-04-25T08:04:15;2.92;;;2.20;;
12780;SDS011;6454;43.304;24.344;2023-04-25T08:06:42;2.60;;;2.40;;
12780;SDS011;6454;43.304;24.344;2023-04-25T08:09:10;2.63;;;2.05;;
12780;SDS011;6454;43.304;24.344;2023-04-25T08:11:37;3.00;;;1.70;;
12780;SDS011;6454;43.304;24.344;2023-04-25T08:14:06;2.67;;;1.90;;
12780;SDS011;6454;43.304;24.344;2023-04-25T08:16:33;1.90;;;1.80;;
12780;SDS011;6454;43.304;24.344;2023-04-25T08:19:00;3.00;;;2.00;;
12780;SDS011;6454;43.304;24.344;2023-04-25T08:21:27;2.35;;;2.00;;
12780;SDS011;6454;43.304;24.344;2023-04-25T08:23:53;2.45;;;1.70;;
12780;SDS011;6454;43.304;24.344;2023-04-25T08:26:21;2.65;;;2.00;;
12780;SDS011;6454;43.304;24.344;2023-04-25T08:28:48;2.50;;;2.30;;
12780;SDS011;6454;43.304;24.344;2023-04-25T08:31:16;2.00;;;1.70;;
12780;SDS011;6454;43.304;24.344;2023-04-25T08:33:43;3.17;;;2.05;;
12780;SDS011;6454;43.304;24.344;2023-04-25T08:36:10;2.17;;;1.40;;
12780;SDS011;6454;43.304;24.344;2023-04-25T08:38:37;2.70;;;2.30;;
12780;SDS011;6454;43.304;24.344;2023-04-25T08:41:04;2.17;;;1.63;;
12780;SDS011;6454;43.304;24.344;2023-04-25T08:43:32;3.35;;;2.10;;
12780;SDS011;6454;43.304;24.344;2023-04-25T08:46:01;8.93;;;3.92;;
12780;SDS011;6454;43.304;24.344;2023-04-25T08:48:31;1.70;;;1.60;;
12780;SDS011;6454;43.304;24.344;2023-04-25T08:51:01;1.67;;;1.55;;
12780;SDS011;6454;43.304;24.344;2023-04-25T08:53:30;2.13;;;1.50;;
12780;SDS011;6454;43.304;24.344;2023-04-25T08:55:59;1.90;;;1.60;;
12780;SDS011;6454;43.304;24.344;2023-04-25T08:58:27;1.52;;;1.42;;
12780;SDS011;6454;43.304;24.344;2023-04-25T09:00:55;2.30;;;1.63;;
12780;SDS011;6454;43.304;24.344;2023-04-25T09:03:22;2.17;;;1.98;;
12780;SDS011;6454;43.304;24.344;2023-04-25T09:05:50;2.80;;;2.10;;
12780;SDS011;6454;43.304;24.344;2023-04-25T09:08:18;2.05;;;1.80;;
12780;SDS011;6454;43.304;24.344;2023-04-25T09:10:45;1.88;;;1.77;;
12780;SDS011;6454;43.304;24.344;2023-04-25T09:13:13;2.60;;;1.63;;
12780;SDS011;6454;43.304;24.344;2023-04-25T09:15:46;2.25;;;2.05;;
12780;SDS011;6454;43.304;24.344;2023-04-25T09:18:21;2.53;;;2.05;;
12780;SDS011;6454;43.304;24.344;2023-04-25T09:20:51;2.70;;;2.00;;
12780;SDS011;6454;43.304;24.344;2023-04-25T09:23:19;2.53;;;2.00;;
12780;SDS011;6454;43.304;24.344;2023-04-25T09:25:47;4.25;;;2.10;;
12780;SDS011;6454;43.304;24.344;2023-04-25T09:28:14;2.90;;;1.90;;
12780;SDS011;6454;43.304;24.344;2023-04-25T09:30:41;2.70;;;1.95;;
12780;SDS011;6454;43.304;24.344;2023-04-25T09:33:09;2.53;;;1.92;;
12780;SDS011;6454;43.304;24.344;2023-04-25T09:35:37;3.22;;;2.10;;
12780;SDS011;6454;43.304;24.344;2023-04-25T09:38:10;2.22;;;2.03;;
12780;SDS011;6454;43.304;24.344;2023-04-25T09:40:41;2.28;;;2.08;;
12780;SDS011;6454;43.304;24.344;2023-04-25T09:43:09;2.20;;;2.00;;
12780;SDS011;6454;43.304;24.344;2023-04-25T09:45:40;2.45;;;1.80;;
12780;SDS011;6454;43.304;24.344;2023-04-25T09:48:11;3.45;;;1.80;;
12780;SDS011;6454;43.304;24.344;2023-04-25T09:50:41;1.95;;;1.80;;
12780;SDS011;6454;43.304;24.344;2023-04-25T09:53:07;2.15;;;1.90;;
12780;SDS011;6454;43.304;24.344;2023-04-25T09:55:36;3.35;;;2.33;;
12780;SDS011;6454;43.304;24.344;2023-04-25T09:58:05;2.28;;;2.08;;
12780;SDS011;6454;43.304;24.344;2023-04-25T10:00:33;3.00;;;1.65;;
12780;SDS011;6454;43.304;24.344;2023-04-25T10:03:01;1.70;;;1.60;;
12780;SDS011;6454;43.304;24.344;2023-04-25T10:05:34;2.38;;;1.58;;
12780;SDS011;6454;43.304;24.344;2023-04-25T10:08:03;2.33;;;1.50;;
12780;SDS011;6454;43.304;24.344;2023-04-25T10:10:33;3.63;;;1.75;;
12780;SDS011;6454;43.304;24.344;2023-04-25T10:13:03;4.15;;;1.60;;
12780;SDS011;6454;43.304;24.344;2023-04-25T10:15:32;4.15;;;2.42;;
12780;SDS011;6454;43.304;24.344;2023-04-25T10:18:00;4.03;;;2.45;;
12780;SDS011;6454;43.304;24.344;2023-04-25T10:20:27;3.65;;;1.90;;
12780;SDS011;6454;43.304;24.344;2023-04-25T10:22:55;2.30;;;2.00;;
12780;SDS011;6454;43.304;24.344;2023-04-25T10:25:29;2.33;;;2.00;;
12780;SDS011;6454;43.304;24.344;2023-04-25T10:27:58;4.80;;;1.77;;
12780;SDS011;6454;43.304;24.344;2023-04-25T10:30:25;4.25;;;2.17;;
12780;SDS011;6454;43.304;24.344;2023-04-25T10:32:52;1.80;;;1.70;;
12780;SDS011;6454;43.304;24.344;2023-04-25T10:35:24;1.42;;;1.33;;
12780;SDS011;6454;43.304;24.344;2023-04-25T10:37:59;1.70;;;1.60;;
12780;SDS011;6454;43.304;24.344;2023-04-25T10:40:29;2.30;;;1.70;;
12780;SDS011;6454;43.304;24.344;2023-04-25T10:43:32;2.75;;;1.63;;
12780;SDS011;6454;43.304;24.344;2023-04-25T10:46:02;1.90;;;1.70;;
12780;SDS011;6454;43.304;24.344;2023-04-25T10:48:43;1.77;;;1.50;;
12780;SDS011;6454;43.304;24.344;2023-04-25T10:51:15;1.73;;;1.52;;
12780;SDS011;6454;43.304;24.344;2023-04-25T10:53:44;1.67;;;1.58;;
12780;SDS011;6454;43.304;24.344;2023-04-25T10:56:11;1.50;;;1.40;;
12780;SDS011;6454;43.304;24.344;2023-04-25T10:58:44;2.10;;;1.60;;
12780;SDS011;6454;43.304;24.344;2023-04-25T11:01:12;2.47;;;1.52;;
12780;SDS011;6454;43.304;24.344;2023-04-25T11:03:42;1.70;;;1.60;;
12780;SDS011;6454;43.304;24.344;2023-04-25T11:06:12;1.80;;;1.30;;
12780;SDS011;6454;43.304;24.344;2023-04-25T11:08:47;2.05;;;1.20;;
12780;SDS011;6454;43.304;24.344;2023-04-25T11:11:15;1.63;;;1.20;;
12780;SDS011;6454;43.304;24.344;2023-04-25T11:13:42;1.98;;;1.38;;
12780;SDS011;6454;43.304;24.344;2023-04-25T11:16:11;1.58;;;1.13;;
12780;SDS011;6454;43.304;24.344;2023-04-25T11:18:40;1.98;;;1.50;;
12780;SDS011;6454;43.304;24.344;2023-04-25T11:21:07;1.35;;;1.25;;
12780;SDS011;6454;43.304;24.344;2023-04-25T11:23:34;1.30;;;1.20;;
12780;SDS011;6454;43.304;24.344;2023-04-25T11:26:01;1.40;;;1.30;;
12780;SDS011;6454;43.304;24.344;2023-04-25T11:28:28;1.20;;;1.10;;
12780;SDS011;6454;43.304;24.344;2023-04-25T11:30:55;1.42;;;1.25;;
12780;SDS011;6454;43.304;24.344;2023-04-25T11:33:24;1.30;;;1.20;;
12780;SDS011;6454;43.304;24.344;2023-04-25T11:35:52;1.73;;;1.10;;
12780;SDS011;6454;43.304;24.344;2023-04-25T11:38:21;1.25;;;1.10;;
12780;SDS011;6454;43.304;24.344;2023-04-25T11:40:51;1.65;;;1.20;;
12780;SDS011;6454;43.304;24.344;2023-04-25T11:43:19;2.17;;;1.20;;
12780;SDS011;6454;43.304;24.344;2023-04-25T11:45:47;2.97;;;1.52;;
12780;SDS011;6454;43.304;24.344;2023-04-25T11:48:15;3.33;;;2.15;;
12780;SDS011;6454;43.304;24.344;2023-04-25T11:50:43;3.00;;;1.70;;
12780;SDS011;6454;43.304;24.344;2023-04-25T11:53:10;3.08;;;1.50;;
12780;SDS011;6454;43.304;24.344;2023-04-25T11:55:38;1.40;;;1.30;;
12780;SDS011;6454;43.304;24.344;2023-04-25T11:58:05;1.05;;;1.05;;
12780;SDS011;6454;43.304;24.344;2023-04-25T12:00:33;2.13;;;1.40;;
12780;SDS011;6454;43.304;24.344;2023-04-25T12:03:00;1.10;;;1.00;;
12780;SDS011;6454;43.304;24.344;2023-04-25T12:05:28;1.27;;;1.17;;
12780;SDS011;6454;43.304;24.344;2023-04-25T12:07:59;2.60;;;1.10;;
12780;SDS011;6454;43.304;24.344;2023-04-25T12:10:36;3.88;;;2.50;;
12780;SDS011;6454;43.304;24.344;2023-04-25T12:13:17;2.17;;;1.70;;
12780;SDS011;6454;43.304;24.344;2023-04-25T12:15:45;1.80;;;1.70;;
12780;SDS011;6454;43.304;24.344;2023-04-25T12:18:11;2.58;;;1.80;;
12780;SDS011;6454;43.304;24.344;2023-04-25T12:20:38;1.63;;;1.20;;
12780;SDS011;6454;43.304;24.344;2023-04-25T12:23:07;2.25;;;1.50;;
12780;SDS011;6454;43.304;24.344;2023-04-25T12:25:34;1.98;;;0.90;;
12780;SDS011;6454;43.304;24.344;2023-04-25T12:28:11;3.55;;;1.25;;
12780;SDS011;6454;43.304;24.344;2023-04-25T12:33:22;4.28;;;1.80;;
12780;SDS011;6454;43.304;24.344;2023-04-25T12:35:50;2.15;;;1.73;;
12780;SDS011;6454;43.304;24.344;2023-04-25T12:38:26;4.03;;;1.80;;
12780;SDS011;6454;43.304;24.344;2023-04-25T12:40:55;2.65;;;2.17;;
12780;SDS011;6454;43.304;24.344;2023-04-25T12:43:22;5.15;;;1.75;;
12780;SDS011;6454;43.304;24.344;2023-04-25T12:45:49;5.13;;;1.90;;
12780;SDS011;6454;43.304;24.344;2023-04-25T12:48:17;2.08;;;1.23;;
12780;SDS011;6454;43.304;24.344;2023-04-25T12:50:44;3.45;;;1.45;;
12780;SDS011;6454;43.304;24.344;2023-04-25T12:53:13;3.10;;;1.48;;
12780;SDS011;6454;43.304;24.344;2023-04-25T12:55:42;3.97;;;1.50;;
12780;SDS011;6454;43.304;24.344;2023-04-25T12:58:11;2.75;;;1.40;;
12780;SDS011;6454;43.304;24.344;2023-04-25T13:00:38;1.70;;;1.60;;
12780;SDS011;6454;43.304;24.344;2023-04-25T13:03:04;2.00;;;1.40;;
12780;SDS011;6454;43.304;24.344;2023-04-25T13:05:31;3.20;;;1.30;;
12780;SDS011;6454;43.304;24.344;2023-04-25T13:07:58;3.67;;;1.48;;
12780;SDS011;6454;43.304;24.344;2023-04-25T13:10:25;1.42;;;1.30;;
12780;SDS011;6454;43.304;24.344;2023-04-25T13:12:53;2.42;;;1.20;;
12780;SDS011;6454;43.304;24.344;2023-04-25T13:15:20;1.80;;;1.23;;
12780;SDS011;6454;43.304;24.344;2023-04-25T13:17:47;3.15;;;1.58;;
12780;SDS011;6454;43.304;24.344;2023-04-25T13:20:13;4.13;;;2.20;;
12780;SDS011;6454;43.304;24.344;2023-04-25T13:22:41;7.40;;;1.90;;
12780;SDS011;6454;43.304;24.344;2023-04-25T13:25:10;3.42;;;1.70;;
12780;SDS011;6454;43.304;24.344;2023-04-25T13:27:37;3.13;;;1.77;;
12780;SDS011;6454;43.304;24.344;2023-04-25T13:30:08;4.47;;;2.30;;
12780;SDS011;6454;43.304;24.344;2023-04-25T13:32:35;5.07;;;2.33;;
12780;SDS011;6454;43.304;24.344;2023-04-25T13:35:03;2.70;;;2.08;;
12780;SDS011;6454;43.304;24.344;2023-04-25T13:37:30;3.00;;;1.73;;
12780;SDS011;6454;43.304;24.344;2023-04-25T13:39:58;3.67;;;2.33;;
12780;SDS011;6454;43.304;24.344;2023-04-25T13:42:25;2.95;;;1.92;;
12780;SDS011;6454;43.304;24.344;2023-04-25T13:44:53;6.35;;;1.98;;
12780;SDS011;6454;43.304;24.344;2023-04-25T13:47:21;1.90;;;1.77;;
12780;SDS011;6454;43.304;24.344;2023-04-25T13:49:48;2.45;;;2.03;;
12780;SDS011;6454;43.304;24.344;2023-04-25T13:52:15;3.00;;;2.13;;
12780;SDS011;6454;43.304;24.344;2023-04-25T13:54:42;2.42;;;1.73;;
12780;SDS011;6454;43.304;24.344;2023-04-25T13:57:09;2.30;;;1.92;;
12780;SDS011;6454;43.304;24.344;2023-04-25T13:59:36;1.65;;;1.52;;
12780;SDS011;6454;43.304;24.344;2023-04-25T14:02:03;3.10;;;1.30;;
12780;SDS011;6454;43.304;24.344;2023-04-25T14:04:31;4.65;;;1.52;;
12780;SDS011;6454;43.304;24.344;2023-04-25T14:06:58;1.98;;;1.00;;
12780;SDS011;6454;43.304;24.344;2023-04-25T14:09:25;1.77;;;1.52;;
12780;SDS011;6454;43.304;24.344;2023-04-25T14:11:52;2.92;;;1.60;;
12780;SDS011;6454;43.304;24.344;2023-04-25T14:14:19;1.73;;;1.50;;
12780;SDS011;6454;43.304;24.344;2023-04-25T14:16:46;2.28;;;1.17;;
12780;SDS011;6454;43.304;24.344;2023-04-25T14:19:14;2.33;;;1.85;;
12780;SDS011;6454;43.304;24.344;2023-04-25T14:21:42;4.03;;;2.05;;
12780;SDS011;6454;43.304;24.344;2023-04-25T14:24:09;4.97;;;1.70;;
12780;SDS011;6454;43.304;24.344;2023-04-25T14:26:37;1.90;;;1.42;;
12780;SDS011;6454;43.304;24.344;2023-04-25T14:29:04;1.85;;;1.30;;
12780;SDS011;6454;43.304;24.344;2023-04-25T14:31:32;4.95;;;1.88;;
12780;SDS011;6454;43.304;24.344;2023-04-25T14:33:59;2.78;;;1.80;;
12780;SDS011;6454;43.304;24.344;2023-04-25T14:36:26;1.75;;;1.60;;
12780;SDS011;6454;43.304;24.344;2023-04-25T14:38:57;2.53;;;2.00;;
12780;SDS011;6454;43.304;24.344;2023-04-25T14:41:24;5.47;;;2.80;;
12780;SDS011;6454;43.304;24.344;2023-04-25T14:43:52;3.92;;;2.40;;
12780;SDS011;6454;43.304;24.344;2023-04-25T14:46:19;5.68;;;1.85;;
12780;SDS011;6454;43.304;24.344;2023-04-25T14:48:47;5.97;;;1.70;;
12780;SDS011;6454;43.304;24.344;2023-04-25T14:51:14;2.60;;;1.60;;
12780;SDS011;6454;43.304;24.344;2023-04-25T14:53:41;1.83;;;1.58;;